createdAt,value
2019-05-05T00:01:05.238Z,3.25
2019-05-05T00:03:52.551Z,3.23
2019-05-05T00:06:22.273Z,3.25
2019-05-05T00:08:51.702Z,3.23
2019-05-05T00:11:41.024Z,3.24
2019-05-05T00:14:12.157Z,3.26
2019-05-05T00:16:55.158Z,3.25
2019-05-05T00:19:32.596Z,3.28
2019-05-05T00:21:55.841Z,3.26
2019-05-05T00:24:25.783Z,3.20
2019-05-05T00:26:55.458Z,3.22
2019-05-05T00:29:25.423Z,3.22
2019-05-05T00:31:55.095Z,3.20
2019-05-05T00:34:24.617Z,3.21
2019-05-05T00:36:55.283Z,3.23
2019-05-05T00:39:25.523Z,3.23
2019-05-05T00:41:55.568Z,3.18
2019-05-05T00:44:25.098Z,3.10
2019-05-05T00:46:56.235Z,3.06
2019-05-05T00:49:27.565Z,3.02
2019-05-05T00:51:57.642Z,3.00
2019-05-05T00:54:28.098Z,3.00
2019-05-05T00:57:00.605Z,3.03
2019-05-05T00:59:34.777Z,3.01
2019-05-05T01:02:22.644Z,3.03
2019-05-05T01:04:55.092Z,2.97
2019-05-05T01:07:24.795Z,2.87
2019-05-05T01:09:54.420Z,2.77
2019-05-05T01:12:24.460Z,2.73
2019-05-05T01:14:55.249Z,2.71
2019-05-05T01:17:25.410Z,2.68
2019-05-05T01:20:03.207Z,2.67
2019-05-05T01:22:28.767Z,2.49
2019-05-05T01:24:59.911Z,2.42
2019-05-05T01:27:29.556Z,2.36
2019-05-05T01:29:59.051Z,2.35
2019-05-05T01:32:48.099Z,2.31
2019-05-05T01:35:17.516Z,2.33
2019-05-05T01:37:55.246Z,2.31
2019-05-05T01:40:29.000Z,2.26
2019-05-05T01:42:59.493Z,2.29
2019-05-05T01:45:29.063Z,2.25
2019-05-05T01:47:58.605Z,2.27
2019-05-05T01:50:29.115Z,2.27
2019-05-05T01:52:58.552Z,2.26
2019-05-05T01:55:28.038Z,2.24
2019-05-05T01:58:00.926Z,2.29
2019-05-05T02:00:30.420Z,2.32
2019-05-05T02:03:00.117Z,2.40
2019-05-05T02:05:31.189Z,2.41
2019-05-05T02:08:00.680Z,2.42
2019-05-05T02:10:30.548Z,2.41
2019-05-05T02:13:00.029Z,2.41
2019-05-05T02:15:30.112Z,2.46
2019-05-05T02:18:00.160Z,2.48
2019-05-05T02:20:45.095Z,2.51
2019-05-05T02:23:16.493Z,2.52
2019-05-05T02:25:46.145Z,2.56
2019-05-05T02:28:15.726Z,2.52
2019-05-05T02:31:05.528Z,2.50
2019-05-05T02:33:35.757Z,2.48
2019-05-05T02:36:05.762Z,2.43
2019-05-05T02:38:36.609Z,2.44
2019-05-05T02:41:07.271Z,2.46
2019-05-05T02:43:38.444Z,2.53
2019-05-05T02:46:27.890Z,2.49
2019-05-05T02:49:00.301Z,2.44
2019-05-05T02:51:30.674Z,2.44
2019-05-05T02:54:04.418Z,2.49
2019-05-05T02:56:38.985Z,2.50
2019-05-05T02:59:10.484Z,2.53
2019-05-05T03:01:41.632Z,2.57
2019-05-05T03:04:14.075Z,2.58
2019-05-05T03:06:46.743Z,2.60
2019-05-05T03:09:18.517Z,2.57
2019-05-05T03:11:50.403Z,2.57
2019-05-05T03:14:23.737Z,2.53
2019-05-05T03:16:54.702Z,2.50
2019-05-05T03:19:25.671Z,2.50
2019-05-05T03:21:56.017Z,2.45
2019-05-05T03:24:25.898Z,2.43
2019-05-05T03:26:55.643Z,2.42
2019-05-05T03:29:25.513Z,2.37
2019-05-05T03:31:56.560Z,2.37
2019-05-05T03:34:27.115Z,2.35
2019-05-05T03:36:57.284Z,2.37
2019-05-05T03:39:29.406Z,2.39
2019-05-05T03:42:00.532Z,2.39
2019-05-05T03:44:33.572Z,2.37
2019-05-05T03:47:03.677Z,2.35
2019-05-05T03:49:34.845Z,2.36
2019-05-05T03:52:04.990Z,2.34
2019-05-05T03:54:35.276Z,2.33
2019-05-05T03:57:07.759Z,2.33
2019-05-05T03:59:40.227Z,2.33
2019-05-05T04:02:11.422Z,2.30
2019-05-05T04:04:48.513Z,2.27
2019-05-05T04:07:18.562Z,2.34
2019-05-05T04:09:48.069Z,2.39
2019-05-05T04:12:17.821Z,2.36
2019-05-05T04:14:47.318Z,2.38
2019-05-05T04:17:27.390Z,2.42
2019-05-05T04:19:58.534Z,2.46
2019-05-05T04:22:29.851Z,2.42
2019-05-05T04:24:59.290Z,2.38
2019-05-05T04:27:28.721Z,2.39
2019-05-05T04:29:58.130Z,2.45
2019-05-05T04:32:27.562Z,2.52
2019-05-05T04:34:57.016Z,2.57
2019-05-05T04:37:26.443Z,2.58
2019-05-05T04:39:55.849Z,2.65
2019-05-05T04:42:25.281Z,2.68
2019-05-05T04:44:54.705Z,2.75
2019-05-05T04:47:43.608Z,2.82
2019-05-05T04:50:24.349Z,2.89
2019-05-05T04:52:55.432Z,2.97
2019-05-05T04:55:24.846Z,2.98
2019-05-05T04:57:54.286Z,2.99
2019-05-05T05:00:24.233Z,3.06
2019-05-05T05:02:59.704Z,3.06
2019-05-05T05:05:33.848Z,3.05
2019-05-05T05:08:03.821Z,3.15
2019-05-05T05:10:34.608Z,3.22
2019-05-05T05:13:04.708Z,3.10
2019-05-05T05:15:34.226Z,3.09
2019-05-05T05:18:05.308Z,3.14
2019-05-05T05:20:34.719Z,3.21
2019-05-05T05:23:04.167Z,3.20
2019-05-05T05:25:34.631Z,3.28
2019-05-05T05:28:04.511Z,3.30
2019-05-05T05:30:34.769Z,3.33
2019-05-05T05:33:05.834Z,3.35
2019-05-05T05:35:35.525Z,3.41
2019-05-05T05:38:05.533Z,3.41
2019-05-05T05:40:44.456Z,3.46
2019-05-05T05:43:15.751Z,3.53
2019-05-05T05:45:54.139Z,3.59
2019-05-05T05:48:37.012Z,3.70
2019-05-05T05:51:08.062Z,3.73
2019-05-05T05:53:37.490Z,3.82
2019-05-05T05:56:06.927Z,3.85
2019-05-05T05:58:36.609Z,3.91
2019-05-05T06:01:06.108Z,3.97
2019-05-05T06:03:35.535Z,4.00
2019-05-05T06:06:05.030Z,4.08
2019-05-05T06:08:34.823Z,4.13
2019-05-05T06:11:04.668Z,4.24
2019-05-05T06:13:34.088Z,4.29
2019-05-05T06:16:04.586Z,4.34
2019-05-05T06:18:35.028Z,4.39
2019-05-05T06:21:04.736Z,4.47
2019-05-05T06:23:34.543Z,4.53
2019-05-05T06:26:06.676Z,4.57
2019-05-05T06:28:35.445Z,4.60
2019-05-05T06:31:05.073Z,4.65
2019-05-05T06:33:34.935Z,4.75
2019-05-05T06:36:04.543Z,4.86
2019-05-05T06:38:34.638Z,4.94
2019-05-05T06:41:11.937Z,5.09
2019-05-05T06:43:46.012Z,5.21
2019-05-05T06:46:23.642Z,5.31
2019-05-05T06:48:53.875Z,5.46
2019-05-05T06:51:24.557Z,5.62
2019-05-05T06:53:55.295Z,5.78
2019-05-05T06:56:24.770Z,5.93
2019-05-05T06:58:55.174Z,6.04
2019-05-05T07:01:24.853Z,6.15
2019-05-05T07:03:54.378Z,6.13
2019-05-05T07:06:24.001Z,6.17
2019-05-05T07:08:54.555Z,6.26
2019-05-05T07:11:24.285Z,6.40
2019-05-05T07:13:53.843Z,6.57
2019-05-05T07:16:24.341Z,6.66
2019-05-05T07:18:54.975Z,6.70
2019-05-05T07:21:26.202Z,6.75
2019-05-05T07:23:55.734Z,6.93
2019-05-05T07:26:25.269Z,7.01
2019-05-05T07:28:54.690Z,7.06
2019-05-05T07:31:24.135Z,7.10
2019-05-05T07:33:54.509Z,7.24
2019-05-05T07:36:38.212Z,7.32
2019-05-05T07:39:09.753Z,7.47
2019-05-05T07:41:40.589Z,7.54
2019-05-05T07:44:24.960Z,7.68
2019-05-05T07:46:43.965Z,7.85
2019-05-05T07:49:14.075Z,7.98
2019-05-05T07:51:44.329Z,8.14
2019-05-05T07:54:14.655Z,8.00
2019-05-05T07:56:44.539Z,8.11
2019-05-05T07:59:14.743Z,8.31
2019-05-05T08:01:46.774Z,8.47
2019-05-05T08:04:15.547Z,8.50
2019-05-05T08:06:47.795Z,8.65
2019-05-05T08:09:17.213Z,8.77
2019-05-05T08:11:46.718Z,8.81
2019-05-05T08:14:16.259Z,8.89
2019-05-05T08:17:04.236Z,9.12
2019-05-05T08:19:35.394Z,9.04
2019-05-05T08:22:05.952Z,9.07
2019-05-05T08:24:46.080Z,9.09
2019-05-05T08:27:24.890Z,9.32
2019-05-05T08:30:02.113Z,9.48
2019-05-05T08:32:35.013Z,9.74
2019-05-05T08:35:04.330Z,9.77
2019-05-05T08:37:34.366Z,9.88
2019-05-05T08:40:06.033Z,9.67
2019-05-05T08:42:35.475Z,9.64
2019-05-05T08:45:05.820Z,9.91
2019-05-05T08:47:38.231Z,9.96
2019-05-05T08:50:08.111Z,9.63
2019-05-05T08:52:37.639Z,9.47
2019-05-05T08:55:07.182Z,9.57
2019-05-05T08:57:36.810Z,9.76
2019-05-05T09:00:08.899Z,10.18
2019-05-05T09:02:40.129Z,10.58
2019-05-05T09:05:09.698Z,10.73
2019-05-05T09:07:44.113Z,10.63
2019-05-05T09:10:14.404Z,10.63
2019-05-05T09:12:44.890Z,10.33
2019-05-05T09:15:15.528Z,10.40
2019-05-05T09:17:45.040Z,10.46
2019-05-05T09:20:14.861Z,10.24
2019-05-05T09:22:44.689Z,10.44
2019-05-05T09:25:15.909Z,10.33
2019-05-05T09:27:47.059Z,10.17
2019-05-05T09:30:18.524Z,10.39
2019-05-05T09:32:48.246Z,10.49
2019-05-05T09:35:17.834Z,10.58
2019-05-05T09:37:47.332Z,10.59
2019-05-05T09:40:19.898Z,10.37
2019-05-05T09:42:49.415Z,10.00
2019-05-05T09:45:18.967Z,10.00
2019-05-05T09:47:48.550Z,10.12
2019-05-05T09:50:18.219Z,10.07
2019-05-05T09:52:47.657Z,10.46
2019-05-05T09:55:17.077Z,11.05
2019-05-05T09:57:46.525Z,11.43
2019-05-05T10:00:16.290Z,11.14
2019-05-05T10:02:45.823Z,11.18
2019-05-05T10:05:15.980Z,11.07
2019-05-05T10:07:45.627Z,10.79
2019-05-05T10:10:15.506Z,10.63
2019-05-05T10:12:44.996Z,10.31
2019-05-05T10:15:14.912Z,10.29
2019-05-05T10:17:46.041Z,10.32
2019-05-05T10:20:16.163Z,10.38
2019-05-05T10:22:45.582Z,10.56
2019-05-05T10:25:29.466Z,10.76
2019-05-05T10:27:58.883Z,10.74
2019-05-05T10:30:28.476Z,10.85
2019-05-05T10:32:57.939Z,10.82
2019-05-05T10:35:27.456Z,11.07
2019-05-05T10:37:59.750Z,11.07
2019-05-05T10:40:33.976Z,11.42
2019-05-05T10:43:04.448Z,11.42
2019-05-05T10:45:34.319Z,11.60
2019-05-05T10:48:04.271Z,11.78
2019-05-05T10:50:34.416Z,11.97
2019-05-05T10:53:04.716Z,12.34
2019-05-05T10:55:34.880Z,12.48
2019-05-05T10:58:04.572Z,12.44
2019-05-05T11:00:39.970Z,12.31
2019-05-05T11:03:09.631Z,12.60
2019-05-05T11:05:41.537Z,12.69
2019-05-05T11:08:13.619Z,12.83
2019-05-05T11:10:44.888Z,12.79
2019-05-05T11:13:15.085Z,13.01
2019-05-05T11:15:44.703Z,12.98
2019-05-05T11:18:15.296Z,12.69
2019-05-05T11:20:45.462Z,12.37
2019-05-05T11:23:15.383Z,12.26
2019-05-05T11:25:45.224Z,12.11
2019-05-05T11:28:16.420Z,12.07
2019-05-05T11:30:48.998Z,12.16
2019-05-05T11:33:38.090Z,12.45
2019-05-05T11:36:20.691Z,12.79
2019-05-05T11:38:50.145Z,13.09
2019-05-05T11:41:19.582Z,13.40
2019-05-05T11:43:49.097Z,12.93
2019-05-05T11:46:18.677Z,13.16
2019-05-05T11:48:50.932Z,12.87
2019-05-05T11:51:20.923Z,12.56
2019-05-05T11:53:50.427Z,12.46
2019-05-05T11:56:22.691Z,12.75
2019-05-05T11:58:54.659Z,13.06
2019-05-05T12:01:24.317Z,12.89
2019-05-05T12:03:53.906Z,13.21
2019-05-05T12:06:24.667Z,13.24
2019-05-05T12:08:54.259Z,12.66
2019-05-05T12:11:28.950Z,12.57
2019-05-05T12:13:58.717Z,12.44
2019-05-05T12:16:32.122Z,12.50
2019-05-05T12:19:03.386Z,12.58
2019-05-05T12:21:33.753Z,12.62
2019-05-05T12:24:05.033Z,12.67
2019-05-05T12:26:39.119Z,12.69
2019-05-05T12:29:17.315Z,12.74
2019-05-05T12:31:48.167Z,12.61
2019-05-05T12:34:20.313Z,12.44
2019-05-05T12:36:54.011Z,12.50
2019-05-05T12:39:23.798Z,12.69
2019-05-05T12:41:54.267Z,12.72
2019-05-05T12:44:26.629Z,12.61
2019-05-05T12:47:14.490Z,12.67
2019-05-05T12:49:44.095Z,12.67
2019-05-05T12:52:14.759Z,13.09
2019-05-05T12:54:46.697Z,13.42
2019-05-05T12:57:16.135Z,13.59
2019-05-05T12:59:45.696Z,13.49
2019-05-05T13:02:15.274Z,13.44
2019-05-05T13:04:44.714Z,13.23
2019-05-05T13:07:14.271Z,13.08
2019-05-05T13:09:44.167Z,13.01
2019-05-05T13:12:15.146Z,12.93
2019-05-05T13:14:44.809Z,12.86
2019-05-05T13:17:15.311Z,12.81
2019-05-05T13:19:46.527Z,12.75
2019-05-05T13:22:20.290Z,12.58
2019-05-05T13:25:07.625Z,12.52
2019-05-05T13:27:39.159Z,12.58
2019-05-05T13:30:10.387Z,12.52
2019-05-05T13:32:39.796Z,12.51
2019-05-05T13:35:14.354Z,12.40
2019-05-05T13:37:44.419Z,12.32
2019-05-05T13:40:14.668Z,12.34
2019-05-05T13:42:44.293Z,12.41
2019-05-05T13:45:19.186Z,12.46
2019-05-05T13:47:48.785Z,12.41
2019-05-05T13:50:25.963Z,12.27
2019-05-05T13:52:55.528Z,11.76
2019-05-05T13:55:27.703Z,11.14
2019-05-05T13:57:57.193Z,10.95
2019-05-05T14:00:27.149Z,10.93
2019-05-05T14:02:56.908Z,11.01
2019-05-05T14:05:26.490Z,11.18
2019-05-05T14:07:56.345Z,11.18
2019-05-05T14:10:25.853Z,11.70
2019-05-05T14:12:55.638Z,12.33
2019-05-05T14:15:25.218Z,12.60
2019-05-05T14:17:54.698Z,12.76
2019-05-05T14:20:27.420Z,12.86
2019-05-05T14:22:57.052Z,12.97
2019-05-05T14:25:28.272Z,13.06
2019-05-05T14:28:06.045Z,13.53
2019-05-05T14:30:43.234Z,13.79
2019-05-05T14:33:14.424Z,14.08
2019-05-05T14:35:45.575Z,14.24
2019-05-05T14:38:19.390Z,14.44
2019-05-05T14:40:48.901Z,14.22
2019-05-05T14:43:18.361Z,13.53
2019-05-05T14:45:47.948Z,13.06
2019-05-05T14:48:17.438Z,13.00
2019-05-05T14:50:48.402Z,13.23
2019-05-05T14:53:25.064Z,13.34
2019-05-05T14:55:54.583Z,13.13
2019-05-05T14:58:24.150Z,12.70
2019-05-05T15:00:53.676Z,12.73
2019-05-05T15:03:24.256Z,12.91
2019-05-05T15:05:58.010Z,12.54
2019-05-05T15:08:33.475Z,12.60
2019-05-05T15:11:07.762Z,12.58
2019-05-05T15:13:37.318Z,12.86
2019-05-05T15:16:09.913Z,12.90
2019-05-05T15:18:38.230Z,12.74
2019-05-05T15:21:08.739Z,13.02
2019-05-05T15:23:40.176Z,13.06
2019-05-05T15:26:09.634Z,13.06
2019-05-05T15:28:39.427Z,12.89
2019-05-05T15:31:11.829Z,12.60
2019-05-05T15:33:44.429Z,12.42
2019-05-05T15:36:15.507Z,12.83
2019-05-05T15:38:44.955Z,13.09
2019-05-05T15:41:17.948Z,13.37
2019-05-05T15:43:47.395Z,13.32
2019-05-05T15:46:16.845Z,13.51
2019-05-05T15:48:47.903Z,13.48
2019-05-05T15:51:18.420Z,13.48
2019-05-05T15:53:47.918Z,13.80
2019-05-05T15:56:17.348Z,13.62
2019-05-05T15:58:46.772Z,13.66
2019-05-05T16:01:16.223Z,13.30
2019-05-05T16:03:46.043Z,12.89
2019-05-05T16:06:18.017Z,12.64
2019-05-05T16:08:50.328Z,12.37
2019-05-05T16:11:26.942Z,12.01
2019-05-05T16:13:56.477Z,11.97
2019-05-05T16:16:34.161Z,11.76
2019-05-05T16:19:27.956Z,11.89
2019-05-05T16:21:58.225Z,11.99
2019-05-05T16:24:36.552Z,11.92
2019-05-05T16:27:18.381Z,12.10
2019-05-05T16:29:36.217Z,12.30
2019-05-05T16:32:18.582Z,12.50
2019-05-05T16:34:40.326Z,12.30
2019-05-05T16:37:10.138Z,12.30
2019-05-05T16:39:39.644Z,12.16
2019-05-05T16:42:09.130Z,11.95
2019-05-05T16:44:38.833Z,11.73
2019-05-05T16:47:10.466Z,11.65
2019-05-05T16:49:41.005Z,11.63
2019-05-05T16:52:12.083Z,11.73
2019-05-05T16:54:43.736Z,11.59
2019-05-05T16:57:14.424Z,11.53
2019-05-05T16:59:44.243Z,11.55
2019-05-05T17:02:13.973Z,11.35
2019-05-05T17:04:43.624Z,11.33
2019-05-05T17:07:14.232Z,11.49
2019-05-05T17:09:44.591Z,11.49
2019-05-05T17:12:14.252Z,11.39
2019-05-05T17:14:46.051Z,11.29
2019-05-05T17:17:18.843Z,11.29
2019-05-05T17:19:49.918Z,11.12
2019-05-05T17:22:23.958Z,10.93
2019-05-05T17:24:53.623Z,10.93
2019-05-05T17:27:23.660Z,11.02
2019-05-05T17:29:53.700Z,10.98
2019-05-05T17:32:24.872Z,10.82
2019-05-05T17:34:55.477Z,10.81
2019-05-05T17:37:24.968Z,10.67
2019-05-05T17:39:56.139Z,10.70
2019-05-05T17:42:39.388Z,10.65
2019-05-05T17:45:15.494Z,10.66
2019-05-05T17:47:46.566Z,10.55
2019-05-05T17:50:18.858Z,10.53
2019-05-05T17:52:55.680Z,10.43
2019-05-05T17:55:33.790Z,10.36
2019-05-05T17:58:05.411Z,10.31
2019-05-05T18:00:36.422Z,10.23
2019-05-05T18:03:06.009Z,10.13
2019-05-05T18:05:54.322Z,10.11
2019-05-05T18:08:39.947Z,10.07
2019-05-05T18:11:11.086Z,9.96
2019-05-05T18:13:43.478Z,9.93
2019-05-05T18:16:15.723Z,9.91
2019-05-05T18:18:45.237Z,9.85
2019-05-05T18:21:15.507Z,9.78
2019-05-05T18:23:46.589Z,9.72
2019-05-05T18:26:20.749Z,9.64
2019-05-05T18:28:51.336Z,9.56
2019-05-05T18:31:24.312Z,9.56
2019-05-05T18:33:54.449Z,9.55
2019-05-05T18:36:24.154Z,9.46
2019-05-05T18:38:55.208Z,9.38
2019-05-05T18:41:26.266Z,9.35
2019-05-05T18:43:58.414Z,9.25
2019-05-05T18:46:33.872Z,9.27
2019-05-05T18:49:04.374Z,9.19
2019-05-05T18:51:34.764Z,9.12
2019-05-05T18:54:04.652Z,9.03
2019-05-05T18:56:34.791Z,9.03
2019-05-05T18:59:06.648Z,8.93
2019-05-05T19:01:55.237Z,8.90
2019-05-05T19:04:32.260Z,8.80
2019-05-05T19:07:18.503Z,8.72
2019-05-05T19:09:53.791Z,8.68
2019-05-05T19:12:19.291Z,8.63
2019-05-05T19:14:48.732Z,8.60
2019-05-05T19:17:18.257Z,8.53
2019-05-05T19:19:49.995Z,8.52
2019-05-05T19:22:19.506Z,8.44
2019-05-05T19:24:49.067Z,8.41
2019-05-05T19:27:20.142Z,8.39
2019-05-05T19:29:49.697Z,8.31
2019-05-05T19:32:19.109Z,8.28
2019-05-05T19:34:48.575Z,8.20
2019-05-05T19:37:18.055Z,8.17
2019-05-05T19:39:49.548Z,8.11
2019-05-05T19:42:19.028Z,8.12
2019-05-05T19:44:50.001Z,8.09
2019-05-05T19:47:20.807Z,8.04
2019-05-05T19:49:52.435Z,8.05
2019-05-05T19:52:23.920Z,7.99
2019-05-05T19:54:54.729Z,7.94
2019-05-05T19:57:24.371Z,7.81
2019-05-05T19:59:55.411Z,7.77
2019-05-05T20:02:24.830Z,7.76
2019-05-05T20:04:55.371Z,7.72
2019-05-05T20:07:24.965Z,7.65
2019-05-05T20:09:54.504Z,7.66
2019-05-05T20:12:23.872Z,7.60
2019-05-05T20:14:55.878Z,7.57
2019-05-05T20:17:29.799Z,7.54
2019-05-05T20:19:59.364Z,7.48
2019-05-05T20:22:28.871Z,7.45
2019-05-05T20:24:58.298Z,7.39
2019-05-05T20:27:27.720Z,7.36
2019-05-05T20:29:57.281Z,7.32
2019-05-05T20:32:38.206Z,7.29
2019-05-05T20:35:17.733Z,7.28
2019-05-05T20:37:57.582Z,7.24
2019-05-05T20:40:28.655Z,7.18
2019-05-05T20:43:01.115Z,7.09
2019-05-05T20:45:34.571Z,7.02
2019-05-05T20:48:05.182Z,6.99
2019-05-05T20:50:34.591Z,6.98
2019-05-05T20:53:04.876Z,6.91
2019-05-05T20:55:34.628Z,6.89
2019-05-05T20:58:04.794Z,6.86
2019-05-05T21:00:34.862Z,6.86
2019-05-05T21:03:04.972Z,6.86
2019-05-05T21:05:34.799Z,6.84
2019-05-05T21:08:04.918Z,6.81
2019-05-05T21:10:34.922Z,6.79
2019-05-05T21:13:04.559Z,6.77
2019-05-05T21:15:34.338Z,6.76
2019-05-05T21:18:05.629Z,6.72
2019-05-05T21:20:35.041Z,6.67
2019-05-05T21:23:06.425Z,6.61
2019-05-05T21:25:37.473Z,6.60
2019-05-05T21:28:06.909Z,6.61
2019-05-05T21:30:36.512Z,6.60
2019-05-05T21:33:06.023Z,6.61
2019-05-05T21:35:35.539Z,6.56
2019-05-05T21:38:05.112Z,6.49
2019-05-05T21:40:34.833Z,6.45
2019-05-05T21:43:05.142Z,6.42
2019-05-05T21:45:35.057Z,6.40
2019-05-05T21:48:04.635Z,6.40
2019-05-05T21:50:39.376Z,6.35
2019-05-05T21:53:19.362Z,6.37
2019-05-05T21:55:56.533Z,6.35
2019-05-05T21:58:36.772Z,6.36
2019-05-05T22:01:14.903Z,6.37
2019-05-05T22:03:44.954Z,6.29
2019-05-05T22:06:14.736Z,6.25
2019-05-05T22:08:44.283Z,6.23
2019-05-05T22:11:14.611Z,6.18
2019-05-05T22:13:44.450Z,6.12
2019-05-05T22:16:14.129Z,6.01
2019-05-05T22:18:46.349Z,6.01
2019-05-05T22:21:22.337Z,6.00
2019-05-05T22:24:09.562Z,5.98
2019-05-05T22:26:38.980Z,5.99
2019-05-05T22:29:08.422Z,6.03
2019-05-05T22:31:37.828Z,5.97
2019-05-05T22:34:09.034Z,5.97
2019-05-05T22:36:38.532Z,6.00
2019-05-05T22:39:10.624Z,6.05
2019-05-05T22:41:40.371Z,6.07
2019-05-05T22:44:09.921Z,6.09
2019-05-05T22:46:40.647Z,6.07
2019-05-05T22:49:10.085Z,6.08
2019-05-05T22:51:39.576Z,6.11
2019-05-05T22:54:09.451Z,6.12
2019-05-05T22:56:38.936Z,6.07
2019-05-05T22:59:08.596Z,6.06
2019-05-05T23:01:38.111Z,6.12
2019-05-05T23:04:18.324Z,6.13
2019-05-05T23:06:55.236Z,6.10
2019-05-05T23:09:24.648Z,6.07
2019-05-05T23:11:54.627Z,6.01
2019-05-05T23:14:30.414Z,5.96
2019-05-05T23:17:09.208Z,5.93
2019-05-05T23:19:55.443Z,5.86
2019-05-05T23:22:29.188Z,5.81
2019-05-05T23:25:04.133Z,5.79
2019-05-05T23:27:47.235Z,5.73
2019-05-05T23:30:18.570Z,5.74
2019-05-05T23:32:48.661Z,5.77
2019-05-05T23:35:18.633Z,5.75
2019-05-05T23:37:51.198Z,5.77
2019-05-05T23:40:24.632Z,5.78
2019-05-05T23:42:54.471Z,5.82
2019-05-05T23:45:24.708Z,5.75
2019-05-05T23:47:55.695Z,5.71
2019-05-05T23:50:25.131Z,5.67
2019-05-05T23:52:54.890Z,5.67
2019-05-05T23:55:24.428Z,5.67
2019-05-05T23:57:54.993Z,5.67
